Time,TemperatureF,DewpointF,PressureIn,WindDirection,WindDirectionDegrees,WindSpeedMPH,WindSpeedGustMPH,Humidity,HourlyPrecipIn,Conditions,Clouds,dailyrainin,SoftwareType,DateUTC
2013-09-06 04:52:00,48.0,41.0,30.72,SSE,148,3.0,6.0,77,0.00,,,0.00,,2013-09-06 11:52:00,
2013-09-06 05:21:00,48.0,41.0,30.72,SE,137,4.0,8.0,76,0.00,,,0.00,,2013-09-06 12:21:00,
2013-09-06 08:22:00,49.0,42.0,30.75,SE,140,4.0,11.0,78,0.00,,,0.00,,2013-09-06 15:22:00,
2013-09-06 08:53:00,50.0,41.0,30.75,SSE,149,4.0,10.0,72,0.00,,,0.00,,2013-09-06 15:53:00,
2013-09-06 09:24:00,50.0,41.0,30.75,SSE,158,2.0,8.0,72,0.00,,,0.00,,2013-09-06 16:24:00,
2013-09-06 09:53:00,51.0,42.0,30.76,South,177,2.0,7.0,71,0.00,,,0.00,,2013-09-06 16:53:00,
2013-09-06 10:24:00,52.0,42.0,30.76,South,184,6.0,13.0,68,0.00,,,0.00,,2013-09-06 17:24:00,
2013-09-06 10:53:00,52.0,44.0,30.76,South,184,4.0,10.0,74,0.00,,,0.00,,2013-09-06 17:53:00,
2013-09-06 11:12:00,53.0,43.0,30.76,South,175,8.0,15.0,69,0.00,,,0.00,,2013-09-06 18:12:00,
2013-09-06 11:22:00,55.0,45.0,30.76,SE,131,3.0,10.0,70,0.00,,,0.00,,2013-09-06 18:22:00,
2013-09-06 11:52:00,53.0,42.0,30.75,South,183,4.0,9.0,67,0.00,,,0.00,,2013-09-06 18:52:00,
2013-09-06 12:21:00,53.0,42.0,30.75,South,177,5.0,8.0,66,0.00,,,0.00,,2013-09-06 19:21:00,
2013-09-06 12:52:00,54.0,42.0,30.74,South,182,5.0,11.0,64,0.00,,,0.00,,2013-09-06 19:52:00,
2013-09-06 13:23:00,52.0,43.0,30.73,SSW,203,3.0,7.0,71,0.00,,,0.00,,2013-09-06 20:23:00,
2013-09-06 13:52:00,56.0,44.0,30.71,South,185,9.0,17.0,65,0.00,,,0.00,,2013-09-06 20:52:00,
2013-09-06 14:22:00,56.0,43.0,30.70,South,180,5.0,15.0,62,0.00,,,0.00,,2013-09-06 21:22:00,
2013-09-06 14:54:00,53.0,43.0,30.69,South,183,5.0,10.0,70,0.00,,,0.00,,2013-09-06 21:54:00,
2013-09-06 15:23:00,56.0,44.0,30.68,SE,129,3.0,9.0,63,0.00,,,0.00,,2013-09-06 22:23:00,
2013-09-06 15:53:00,54.0,44.0,30.67,South,171,3.0,10.0,68,0.00,,,0.00,,2013-09-06 22:53:00,
2013-09-06 16:23:00,53.0,44.0,30.66,South,175,5.0,8.0,72,0.00,,,0.00,,2013-09-06 23:23:00,
2013-09-06 16:52:00,51.0,44.0,30.66,North,0,0.0,3.0,76,0.00,,,0.00,,2013-09-06 23:52:00,
2013-09-06 17:22:00,51.0,43.0,30.66,SSE,156,3.0,6.0,73,0.00,,,0.00,,2013-09-07 00:22:00,
2013-09-06 17:42:00,53.0,43.0,30.66,South,182,4.0,7.0,70,0.00,,,0.00,,2013-09-07 00:42:00,
2013-09-06 17:52:00,54.0,44.0,30.65,SSE,156,4.0,7.0,68,0.00,,,0.00,,2013-09-07 00:52:00,
2013-09-06 18:12:00,54.0,44.0,30.65,SSE,166,4.0,9.0,69,0.00,,,0.00,,2013-09-07 01:12:00,
2013-09-06 18:21:00,54.0,43.0,30.65,SSE,161,5.0,9.0,67,0.00,,,0.00,,2013-09-07 01:21:00,
2013-09-06 18:53:00,51.0,42.0,30.65,SSE,152,4.0,8.0,72,0.00,,,0.00,,2013-09-07 01:53:00,
2013-09-06 19:23:00,51.0,42.0,30.65,SE,140,2.0,3.0,71,0.00,,,0.00,,2013-09-07 02:23:00,
2013-09-06 19:52:00,51.0,42.0,30.65,SE,133,5.0,9.0,70,0.00,,,0.00,,2013-09-07 02:52:00,
2013-09-06 20:22:00,51.0,42.0,30.66,SE,125,6.0,14.0,70,0.00,,,0.00,,2013-09-07 03:22:00,
2013-09-06 20:55:00,51.0,41.0,30.66,ESE,114,5.0,11.0,68,0.00,,,0.00,,2013-09-07 03:55:00,
2013-09-06 21:23:00,51.0,41.0,30.66,SE,126,4.0,10.0,68,0.00,,,0.00,,2013-09-07 04:23:00,
2013-09-06 22:52:00,49.0,40.0,30.68,SE,141,3.0,8.0,72,0.00,,,0.00,,2013-09-07 05:52:00,
2013-09-06 23:21:00,49.0,40.0,30.68,ESE,121,1.0,3.0,70,0.00,,,0.00,,2013-09-07 06:21:00,